Terminal Aerodrome Forecast
Issued by NWS

Home | Current Version | Previous Version | Text Only | Print | Product List | Glossary On
Versions: 1 2 3 4 5 6 7 8 9 10 11 12 13 14 15 16 17 18
000
FTUS42 KTAE 030500
TAFDHN
TAF
KDHN 030529Z 0306/0406 VRB04KT 4SM BR OVC030
     FM030900 00000KT 1/2SM FG OVC002
      TEMPO 0309/0313 1/4SM FG
     FM031400 15007KT P6SM OVC007
     FM032000 18010KT P6SM SCT025 BKN050
     FM040000 17004KT P6SM BKN250=

USA.gov is the U.S. government's official web portal to all federal, state and local government web resources and services.